sensor_id;sensor_type;location;lat;lon;timestamp;temperature;humidity
33827;DHT22;20128;45.582;5.298;2023-09-18T00:00:15;27.30;58.90
33827;DHT22;20128;45.582;5.298;2023-09-18T00:02:40;27.30;59.40
33827;DHT22;20128;45.582;5.298;2023-09-18T00:05:06;27.30;59.30
33827;DHT22;20128;45.582;5.298;2023-09-18T00:07:32;27.30;59.50
33827;DHT22;20128;45.582;5.298;2023-09-18T00:09:57;27.30;59.70
33827;DHT22;20128;45.582;5.298;2023-09-18T00:12:23;27.20;59.50
33827;DHT22;20128;45.582;5.298;2023-09-18T00:14:49;27.20;59.40
33827;DHT22;20128;45.582;5.298;2023-09-18T00:17:15;27.20;59.70
33827;DHT22;20128;45.582;5.298;2023-09-18T00:19:42;27.20;59.80
33827;DHT22;20128;45.582;5.298;2023-09-18T00:22:08;27.20;59.90
33827;DHT22;20128;45.582;5.298;2023-09-18T00:24:33;27.20;60.10
33827;DHT22;20128;45.582;5.298;2023-09-18T00:26:59;27.20;60.20
33827;DHT22;20128;45.582;5.298;2023-09-18T00:29:25;27.10;60.20
33827;DHT22;20128;45.582;5.298;2023-09-18T00:31:50;27.10;60.30
33827;DHT22;20128;45.582;5.298;2023-09-18T00:34:16;27.10;60.60
33827;DHT22;20128;45.582;5.298;2023-09-18T00:36:42;27.10;60.60
33827;DHT22;20128;45.582;5.298;2023-09-18T00:39:07;27.10;60.70
33827;DHT22;20128;45.582;5.298;2023-09-18T00:41:33;27.10;61.00
33827;DHT22;20128;45.582;5.298;2023-09-18T00:43:59;27.10;60.80
33827;DHT22;20128;45.582;5.298;2023-09-18T00:46:25;27.00;60.70
33827;DHT22;20128;45.582;5.298;2023-09-18T00:48:53;27.10;60.80
33827;DHT22;20128;45.582;5.298;2023-09-18T00:51:18;27.00;60.00
33827;DHT22;20128;45.582;5.298;2023-09-18T00:53:45;27.00;59.20
33827;DHT22;20128;45.582;5.298;2023-09-18T00:56:14;26.90;56.90
33827;DHT22;20128;45.582;5.298;2023-09-18T00:58:40;26.90;55.70
33827;DHT22;20128;45.582;5.298;2023-09-18T01:01:06;26.80;55.90
33827;DHT22;20128;45.582;5.298;2023-09-18T01:03:31;26.80;54.70
33827;DHT22;20128;45.582;5.298;2023-09-18T01:05:57;26.80;54.60
33827;DHT22;20128;45.582;5.298;2023-09-18T01:08:23;26.80;54.10
33827;DHT22;20128;45.582;5.298;2023-09-18T01:11:00;26.70;53.30
33827;DHT22;20128;45.582;5.298;2023-09-18T01:13:37;26.70;53.30
33827;DHT22;20128;45.582;5.298;2023-09-18T01:16:14;26.70;53.30
33827;DHT22;20128;45.582;5.298;2023-09-18T01:18:49;26.70;53.70
33827;DHT22;20128;45.582;5.298;2023-09-18T01:21:16;26.70;54.30
33827;DHT22;20128;45.582;5.298;2023-09-18T01:23:42;26.70;55.20
33827;DHT22;20128;45.582;5.298;2023-09-18T01:26:07;26.70;55.30
33827;DHT22;20128;45.582;5.298;2023-09-18T01:28:33;26.70;55.40
33827;DHT22;20128;45.582;5.298;2023-09-18T01:30:59;26.70;56.10
33827;DHT22;20128;45.582;5.298;2023-09-18T01:33:25;26.70;57.00
33827;DHT22;20128;45.582;5.298;2023-09-18T01:35:53;26.70;56.40
33827;DHT22;20128;45.582;5.298;2023-09-18T01:38:22;26.70;56.10
33827;DHT22;20128;45.582;5.298;2023-09-18T01:40:48;26.70;55.80
33827;DHT22;20128;45.582;5.298;2023-09-18T01:43:14;26.70;55.40
33827;DHT22;20128;45.582;5.298;2023-09-18T01:45:40;26.60;55.40
33827;DHT22;20128;45.582;5.298;2023-09-18T01:48:07;26.60;55.60
33827;DHT22;20128;45.582;5.298;2023-09-18T01:50:33;26.50;55.30
33827;DHT22;20128;45.582;5.298;2023-09-18T01:52:58;26.60;55.80
33827;DHT22;20128;45.582;5.298;2023-09-18T01:55:24;26.60;55.50
33827;DHT22;20128;45.582;5.298;2023-09-18T01:57:50;26.60;56.00
33827;DHT22;20128;45.582;5.298;2023-09-18T02:00:16;26.50;56.40
33827;DHT22;20128;45.582;5.298;2023-09-18T02:02:41;26.50;56.90
33827;DHT22;20128;45.582;5.298;2023-09-18T02:05:07;26.50;58.30
33827;DHT22;20128;45.582;5.298;2023-09-18T02:07:33;26.40;57.70
33827;DHT22;20128;45.582;5.298;2023-09-18T02:09:59;26.40;57.80
33827;DHT22;20128;45.582;5.298;2023-09-18T02:12:24;26.40;58.30
33827;DHT22;20128;45.582;5.298;2023-09-18T02:14:50;26.30;58.60
33827;DHT22;20128;45.582;5.298;2023-09-18T02:17:16;26.30;59.20
33827;DHT22;20128;45.582;5.298;2023-09-18T02:19:41;26.20;59.80
33827;DHT22;20128;45.582;5.298;2023-09-18T02:22:08;26.20;60.60
33827;DHT22;20128;45.582;5.298;2023-09-18T02:24:34;26.10;61.10
33827;DHT22;20128;45.582;5.298;2023-09-18T02:26:59;26.00;61.60
33827;DHT22;20128;45.582;5.298;2023-09-18T02:29:25;25.90;62.30
33827;DHT22;20128;45.582;5.298;2023-09-18T02:31:51;25.80;62.70
33827;DHT22;20128;45.582;5.298;2023-09-18T02:34:16;25.70;64.80
33827;DHT22;20128;45.582;5.298;2023-09-18T02:36:44;25.60;65.30
33827;DHT22;20128;45.582;5.298;2023-09-18T02:39:10;25.40;65.40
33827;DHT22;20128;45.582;5.298;2023-09-18T02:41:35;25.30;66.20
33827;DHT22;20128;45.582;5.298;2023-09-18T02:44:01;25.30;66.40
33827;DHT22;20128;45.582;5.298;2023-09-18T02:46:26;25.20;67.10
33827;DHT22;20128;45.582;5.298;2023-09-18T02:48:52;25.10;68.20
33827;DHT22;20128;45.582;5.298;2023-09-18T02:51:18;25.10;68.50
33827;DHT22;20128;45.582;5.298;2023-09-18T02:53:44;25.00;68.70
33827;DHT22;20128;45.582;5.298;2023-09-18T02:56:10;24.90;68.90
33827;DHT22;20128;45.582;5.298;2023-09-18T02:58:36;24.80;69.20
33827;DHT22;20128;45.582;5.298;2023-09-18T03:01:01;24.80;69.70
33827;DHT22;20128;45.582;5.298;2023-09-18T03:03:29;24.70;70.60
33827;DHT22;20128;45.582;5.298;2023-09-18T03:06:01;24.60;70.70
33827;DHT22;20128;45.582;5.298;2023-09-18T03:08:27;24.50;71.20
33827;DHT22;20128;45.582;5.298;2023-09-18T03:10:54;24.40;71.30
33827;DHT22;20128;45.582;5.298;2023-09-18T03:13:21;24.30;71.60
33827;DHT22;20128;45.582;5.298;2023-09-18T03:15:46;24.20;71.80
33827;DHT22;20128;45.582;5.298;2023-09-18T03:18:13;24.10;72.20
33827;DHT22;20128;45.582;5.298;2023-09-18T03:20:38;24.10;72.60
33827;DHT22;20128;45.582;5.298;2023-09-18T03:23:04;24.00;73.00
33827;DHT22;20128;45.582;5.298;2023-09-18T03:25:30;24.00;73.60
33827;DHT22;20128;45.582;5.298;2023-09-18T03:27:57;24.00;73.60
33827;DHT22;20128;45.582;5.298;2023-09-18T03:30:26;23.90;74.40
33827;DHT22;20128;45.582;5.298;2023-09-18T03:32:52;23.80;74.70
33827;DHT22;20128;45.582;5.298;2023-09-18T03:35:19;23.80;75.30
33827;DHT22;20128;45.582;5.298;2023-09-18T03:37:52;23.80;75.70
33827;DHT22;20128;45.582;5.298;2023-09-18T03:40:19;23.70;76.20
33827;DHT22;20128;45.582;5.298;2023-09-18T03:42:45;23.70;76.70
33827;DHT22;20128;45.582;5.298;2023-09-18T03:45:12;23.70;76.80
33827;DHT22;20128;45.582;5.298;2023-09-18T03:47:39;23.70;77.00
33827;DHT22;20128;45.582;5.298;2023-09-18T03:50:09;23.60;76.60
33827;DHT22;20128;45.582;5.298;2023-09-18T03:52:35;23.50;76.50
33827;DHT22;20128;45.582;5.298;2023-09-18T03:55:01;23.40;76.90
33827;DHT22;20128;45.582;5.298;2023-09-18T03:57:26;23.20;77.40
33827;DHT22;20128;45.582;5.298;2023-09-18T03:59:52;23.00;78.30
33827;DHT22;20128;45.582;5.298;2023-09-18T04:02:18;22.90;79.40
33827;DHT22;20128;45.582;5.298;2023-09-18T04:04:43;23.10;79.40
33827;DHT22;20128;45.582;5.298;2023-09-18T04:07:09;23.20;79.20
33827;DHT22;20128;45.582;5.298;2023-09-18T04:09:35;23.30;78.90
33827;DHT22;20128;45.582;5.298;2023-09-18T04:12:02;23.40;78.40
33827;DHT22;20128;45.582;5.298;2023-09-18T04:14:27;23.40;78.40
33827;DHT22;20128;45.582;5.298;2023-09-18T04:16:53;23.50;78.60
33827;DHT22;20128;45.582;5.298;2023-09-18T04:19:19;23.40;78.40
33827;DHT22;20128;45.582;5.298;2023-09-18T04:21:45;23.20;78.70
33827;DHT22;20128;45.582;5.298;2023-09-18T04:24:10;23.00;79.30
33827;DHT22;20128;45.582;5.298;2023-09-18T04:26:36;22.90;79.50
33827;DHT22;20128;45.582;5.298;2023-09-18T04:29:03;22.70;80.10
33827;DHT22;20128;45.582;5.298;2023-09-18T04:31:29;22.60;80.70
33827;DHT22;20128;45.582;5.298;2023-09-18T04:33:55;22.60;81.00
33827;DHT22;20128;45.582;5.298;2023-09-18T04:36:21;22.70;81.10
33827;DHT22;20128;45.582;5.298;2023-09-18T04:38:46;22.90;80.80
33827;DHT22;20128;45.582;5.298;2023-09-18T04:41:13;23.00;80.50
33827;DHT22;20128;45.582;5.298;2023-09-18T04:43:40;23.00;80.60
33827;DHT22;20128;45.582;5.298;2023-09-18T04:46:06;22.80;80.50
33827;DHT22;20128;45.582;5.298;2023-09-18T04:48:32;22.70;80.80
33827;DHT22;20128;45.582;5.298;2023-09-18T04:50:59;22.70;80.90
33827;DHT22;20128;45.582;5.298;2023-09-18T04:53:25;22.80;80.90
33827;DHT22;20128;45.582;5.298;2023-09-18T04:55:51;22.90;80.80
33827;DHT22;20128;45.582;5.298;2023-09-18T04:58:17;22.90;80.80
33827;DHT22;20128;45.582;5.298;2023-09-18T05:00:43;23.00;80.60
33827;DHT22;20128;45.582;5.298;2023-09-18T05:03:09;23.00;80.40
33827;DHT22;20128;45.582;5.298;2023-09-18T05:05:36;23.00;80.50
33827;DHT22;20128;45.582;5.298;2023-09-18T05:08:02;23.00;80.30
33827;DHT22;20128;45.582;5.298;2023-09-18T05:10:28;22.90;80.60
33827;DHT22;20128;45.582;5.298;2023-09-18T05:12:55;22.80;81.10
33827;DHT22;20128;45.582;5.298;2023-09-18T05:15:24;22.90;81.40
33827;DHT22;20128;45.582;5.298;2023-09-18T05:17:52;22.90;81.60
33827;DHT22;20128;45.582;5.298;2023-09-18T05:20:22;22.90;81.40
33827;DHT22;20128;45.582;5.298;2023-09-18T05:22:50;22.90;81.10
33827;DHT22;20128;45.582;5.298;2023-09-18T05:25:18;23.00;80.90
33827;DHT22;20128;45.582;5.298;2023-09-18T05:27:44;23.00;80.90
33827;DHT22;20128;45.582;5.298;2023-09-18T05:30:11;23.00;81.10
33827;DHT22;20128;45.582;5.298;2023-09-18T05:32:38;23.10;80.40
33827;DHT22;20128;45.582;5.298;2023-09-18T05:35:04;23.00;80.30
33827;DHT22;20128;45.582;5.298;2023-09-18T05:37:32;22.80;80.10
33827;DHT22;20128;45.582;5.298;2023-09-18T05:39:58;22.70;80.90
33827;DHT22;20128;45.582;5.298;2023-09-18T05:42:24;22.80;81.20
33827;DHT22;20128;45.582;5.298;2023-09-18T05:44:49;22.90;81.20
33827;DHT22;20128;45.582;5.298;2023-09-18T05:47:15;23.00;81.00
33827;DHT22;20128;45.582;5.298;2023-09-18T05:49:41;23.00;80.50
33827;DHT22;20128;45.582;5.298;2023-09-18T05:52:06;22.90;80.80
33827;DHT22;20128;45.582;5.298;2023-09-18T05:54:32;22.90;81.00
33827;DHT22;20128;45.582;5.298;2023-09-18T05:56:57;22.90;80.90
33827;DHT22;20128;45.582;5.298;2023-09-18T05:59:23;22.60;81.00
33827;DHT22;20128;45.582;5.298;2023-09-18T06:01:49;22.50;82.50
33827;DHT22;20128;45.582;5.298;2023-09-18T06:04:14;22.50;81.80
33827;DHT22;20128;45.582;5.298;2023-09-18T06:06:42;22.60;81.80
33827;DHT22;20128;45.582;5.298;2023-09-18T06:09:08;22.50;81.40
33827;DHT22;20128;45.582;5.298;2023-09-18T06:11:33;22.50;82.10
33827;DHT22;20128;45.582;5.298;2023-09-18T06:13:59;22.60;82.10
33827;DHT22;20128;45.582;5.298;2023-09-18T06:16:25;22.60;81.60
33827;DHT22;20128;45.582;5.298;2023-09-18T06:18:50;22.50;81.70
33827;DHT22;20128;45.582;5.298;2023-09-18T06:21:16;22.30;82.10
33827;DHT22;20128;45.582;5.298;2023-09-18T06:23:42;22.30;82.50
33827;DHT22;20128;45.582;5.298;2023-09-18T06:26:07;22.30;82.70
33827;DHT22;20128;45.582;5.298;2023-09-18T06:28:33;22.40;82.70
33827;DHT22;20128;45.582;5.298;2023-09-18T06:30:59;22.60;82.50
33827;DHT22;20128;45.582;5.298;2023-09-18T06:33:24;22.70;82.10
33827;DHT22;20128;45.582;5.298;2023-09-18T06:35:50;22.90;81.80
33827;DHT22;20128;45.582;5.298;2023-09-18T06:38:17;22.90;81.10
33827;DHT22;20128;45.582;5.298;2023-09-18T06:40:42;22.90;81.10
33827;DHT22;20128;45.582;5.298;2023-09-18T06:43:08;22.90;80.60
33827;DHT22;20128;45.582;5.298;2023-09-18T06:45:34;22.90;80.60
33827;DHT22;20128;45.582;5.298;2023-09-18T06:47:59;22.80;80.50
33827;DHT22;20128;45.582;5.298;2023-09-18T06:50:28;22.80;80.00
33827;DHT22;20128;45.582;5.298;2023-09-18T06:52:54;22.90;80.00
33827;DHT22;20128;45.582;5.298;2023-09-18T06:55:20;22.70;80.00
33827;DHT22;20128;45.582;5.298;2023-09-18T06:57:45;22.50;80.40
33827;DHT22;20128;45.582;5.298;2023-09-18T07:00:13;22.30;81.30
33827;DHT22;20128;45.582;5.298;2023-09-18T07:02:40;22.20;81.90
33827;DHT22;20128;45.582;5.298;2023-09-18T07:05:06;22.30;82.20
33827;DHT22;20128;45.582;5.298;2023-09-18T07:07:31;22.30;82.20
33827;DHT22;20128;45.582;5.298;2023-09-18T07:09:57;22.40;82.00
33827;DHT22;20128;45.582;5.298;2023-09-18T07:12:23;22.40;81.80
33827;DHT22;20128;45.582;5.298;2023-09-18T07:14:49;22.30;82.00
33827;DHT22;20128;45.582;5.298;2023-09-18T07:17:15;22.10;82.40
33827;DHT22;20128;45.582;5.298;2023-09-18T07:19:41;22.00;82.80
33827;DHT22;20128;45.582;5.298;2023-09-18T07:22:06;21.80;83.30
33827;DHT22;20128;45.582;5.298;2023-09-18T07:24:32;21.70;83.70
33827;DHT22;20128;45.582;5.298;2023-09-18T07:26:57;21.80;84.10
33827;DHT22;20128;45.582;5.298;2023-09-18T07:29:24;21.80;84.30
33827;DHT22;20128;45.582;5.298;2023-09-18T07:31:51;21.90;84.30
33827;DHT22;20128;45.582;5.298;2023-09-18T07:34:16;21.90;84.00
33827;DHT22;20128;45.582;5.298;2023-09-18T07:36:43;21.90;84.60
33827;DHT22;20128;45.582;5.298;2023-09-18T07:39:10;22.00;84.60
33827;DHT22;20128;45.582;5.298;2023-09-18T07:41:37;22.10;84.40
33827;DHT22;20128;45.582;5.298;2023-09-18T07:44:03;22.20;84.20
33827;DHT22;20128;45.582;5.298;2023-09-18T07:46:29;22.20;83.90
33827;DHT22;20128;45.582;5.298;2023-09-18T07:48:54;22.20;83.90
33827;DHT22;20128;45.582;5.298;2023-09-18T07:51:20;22.20;83.80
33827;DHT22;20128;45.582;5.298;2023-09-18T07:53:46;22.10;83.90
33827;DHT22;20128;45.582;5.298;2023-09-18T07:56:12;22.10;84.00
33827;DHT22;20128;45.582;5.298;2023-09-18T07:58:37;21.80;84.50
33827;DHT22;20128;45.582;5.298;2023-09-18T08:01:04;21.50;85.80
33827;DHT22;20128;45.582;5.298;2023-09-18T08:03:34;21.20;86.60
33827;DHT22;20128;45.582;5.298;2023-09-18T08:05:59;21.00;87.70
33827;DHT22;20128;45.582;5.298;2023-09-18T08:08:25;21.10;88.10
33827;DHT22;20128;45.582;5.298;2023-09-18T08:10:52;21.20;88.00
33827;DHT22;20128;45.582;5.298;2023-09-18T08:13:18;21.30;87.70
33827;DHT22;20128;45.582;5.298;2023-09-18T08:15:45;21.40;88.00
33827;DHT22;20128;45.582;5.298;2023-09-18T08:18:11;21.50;87.70
33827;DHT22;20128;45.582;5.298;2023-09-18T08:25:30;21.30;87.80
33827;DHT22;20128;45.582;5.298;2023-09-18T08:27:56;21.20;88.00
33827;DHT22;20128;45.582;5.298;2023-09-18T08:30:22;21.00;88.40
33827;DHT22;20128;45.582;5.298;2023-09-18T08:32:47;20.90;89.10
33827;DHT22;20128;45.582;5.298;2023-09-18T08:35:13;21.00;89.60
33827;DHT22;20128;45.582;5.298;2023-09-18T08:37:42;21.10;89.30
33827;DHT22;20128;45.582;5.298;2023-09-18T08:40:13;21.10;89.50
33827;DHT22;20128;45.582;5.298;2023-09-18T08:42:45;21.20;89.50
33827;DHT22;20128;45.582;5.298;2023-09-18T08:45:22;21.30;89.50
33827;DHT22;20128;45.582;5.298;2023-09-18T08:47:48;21.40;88.90
33827;DHT22;20128;45.582;5.298;2023-09-18T08:50:15;21.20;89.30
33827;DHT22;20128;45.582;5.298;2023-09-18T08:52:41;21.10;89.50
33827;DHT22;20128;45.582;5.298;2023-09-18T08:55:08;20.90;90.00
33827;DHT22;20128;45.582;5.298;2023-09-18T08:57:34;21.00;90.20
33827;DHT22;20128;45.582;5.298;2023-09-18T09:00:01;21.10;90.30
33827;DHT22;20128;45.582;5.298;2023-09-18T09:02:33;21.30;90.20
33827;DHT22;20128;45.582;5.298;2023-09-18T09:04:58;21.40;89.80
33827;DHT22;20128;45.582;5.298;2023-09-18T09:07:25;21.50;89.20
33827;DHT22;20128;45.582;5.298;2023-09-18T09:09:51;21.60;89.00
33827;DHT22;20128;45.582;5.298;2023-09-18T09:13:19;21.60;88.70
33827;DHT22;20128;45.582;5.298;2023-09-18T09:15:28;21.70;88.60
33827;DHT22;20128;45.582;5.298;2023-09-18T09:18:06;21.70;87.80
33827;DHT22;20128;45.582;5.298;2023-09-18T09:20:33;21.50;88.10
33827;DHT22;20128;45.582;5.298;2023-09-18T09:23:03;21.30;88.20
33827;DHT22;20128;45.582;5.298;2023-09-18T09:25:30;21.30;88.60
33827;DHT22;20128;45.582;5.298;2023-09-18T09:27:58;21.30;88.40
33827;DHT22;20128;45.582;5.298;2023-09-18T09:30:26;21.40;88.00
33827;DHT22;20128;45.582;5.298;2023-09-18T09:32:54;21.50;88.00
33827;DHT22;20128;45.582;5.298;2023-09-18T09:37:56;21.50;86.50
33827;DHT22;20128;45.582;5.298;2023-09-18T09:40:23;21.40;86.10
33827;DHT22;20128;45.582;5.298;2023-09-18T09:42:52;21.40;86.10
33827;DHT22;20128;45.582;5.298;2023-09-18T09:45:19;21.40;86.50
33827;DHT22;20128;45.582;5.298;2023-09-18T09:47:45;21.50;86.30
33827;DHT22;20128;45.582;5.298;2023-09-18T09:50:15;21.40;86.60
33827;DHT22;20128;45.582;5.298;2023-09-18T09:52:51;21.40;87.00
33827;DHT22;20128;45.582;5.298;2023-09-18T09:55:26;21.60;87.20
33827;DHT22;20128;45.582;5.298;2023-09-18T09:57:56;21.50;86.50
33827;DHT22;20128;45.582;5.298;2023-09-18T10:00:25;21.40;86.70
33827;DHT22;20128;45.582;5.298;2023-09-18T10:02:57;21.30;87.00
33827;DHT22;20128;45.582;5.298;2023-09-18T10:05:29;21.50;87.00
33827;DHT22;20128;45.582;5.298;2023-09-18T10:08:00;21.60;86.90
33827;DHT22;20128;45.582;5.298;2023-09-18T10:10:33;21.70;86.60
33827;DHT22;20128;45.582;5.298;2023-09-18T10:13:09;21.80;86.10
33827;DHT22;20128;45.582;5.298;2023-09-18T10:15:36;21.60;85.80
33827;DHT22;20128;45.582;5.298;2023-09-18T10:18:07;21.40;86.80
33827;DHT22;20128;45.582;5.298;2023-09-18T10:20:39;21.50;87.30
33827;DHT22;20128;45.582;5.298;2023-09-18T10:23:15;21.60;87.30
33827;DHT22;20128;45.582;5.298;2023-09-18T10:25:50;21.70;85.80
33827;DHT22;20128;45.582;5.298;2023-09-18T10:28:21;21.70;85.60
33827;DHT22;20128;45.582;5.298;2023-09-18T10:30:49;21.60;85.70
33827;DHT22;20128;45.582;5.298;2023-09-18T10:33:16;21.50;85.80
33827;DHT22;20128;45.582;5.298;2023-09-18T10:35:42;21.50;86.10
33827;DHT22;20128;45.582;5.298;2023-09-18T10:38:09;21.50;86.10
33827;DHT22;20128;45.582;5.298;2023-09-18T10:40:37;21.50;86.40
33827;DHT22;20128;45.582;5.298;2023-09-18T10:43:04;21.40;86.70
33827;DHT22;20128;45.582;5.298;2023-09-18T10:45:31;21.40;86.80
33827;DHT22;20128;45.582;5.298;2023-09-18T10:47:57;21.50;86.50
33827;DHT22;20128;45.582;5.298;2023-09-18T10:50:24;21.50;86.30
33827;DHT22;20128;45.582;5.298;2023-09-18T10:52:50;21.50;85.90
33827;DHT22;20128;45.582;5.298;2023-09-18T10:55:16;21.30;86.00
33827;DHT22;20128;45.582;5.298;2023-09-18T10:57:50;21.20;86.40
33827;DHT22;20128;45.582;5.298;2023-09-18T11:00:17;21.20;87.00
33827;DHT22;20128;45.582;5.298;2023-09-18T11:02:54;21.20;86.90
33827;DHT22;20128;45.582;5.298;2023-09-18T11:05:33;21.20;87.00
33827;DHT22;20128;45.582;5.298;2023-09-18T11:08:24;21.20;87.70
33827;DHT22;20128;45.582;5.298;2023-09-18T11:11:00;21.20;87.70
33827;DHT22;20128;45.582;5.298;2023-09-18T11:13:30;21.30;87.60
33827;DHT22;20128;45.582;5.298;2023-09-18T11:26:33;21.30;87.20
33827;DHT22;20128;45.582;5.298;2023-09-18T11:29:03;21.30;87.30
33827;DHT22;20128;45.582;5.298;2023-09-18T11:31:47;21.20;87.20
33827;DHT22;20128;45.582;5.298;2023-09-18T11:36:45;21.20;88.10
33827;DHT22;20128;45.582;5.298;2023-09-18T11:39:12;21.10;87.90
33827;DHT22;20128;45.582;5.298;2023-09-18T11:41:38;21.20;88.00
33827;DHT22;20128;45.582;5.298;2023-09-18T11:46:38;20.90;88.20
33827;DHT22;20128;45.582;5.298;2023-09-18T11:49:07;20.80;88.80
33827;DHT22;20128;45.582;5.298;2023-09-18T11:51:35;20.90;89.00
33827;DHT22;20128;45.582;5.298;2023-09-18T11:54:02;20.90;88.70
33827;DHT22;20128;45.582;5.298;2023-09-18T11:56:39;20.90;88.80
33827;DHT22;20128;45.582;5.298;2023-09-18T11:59:05;21.00;89.30
33827;DHT22;20128;45.582;5.298;2023-09-18T12:01:32;21.20;89.10
33827;DHT22;20128;45.582;5.298;2023-09-18T12:04:02;21.30;88.40
33827;DHT22;20128;45.582;5.298;2023-09-18T12:06:33;21.30;87.80
33827;DHT22;20128;45.582;5.298;2023-09-18T12:08:59;21.20;87.80
33827;DHT22;20128;45.582;5.298;2023-09-18T12:11:25;21.10;88.40
33827;DHT22;20128;45.582;5.298;2023-09-18T12:13:52;21.00;89.10
33827;DHT22;20128;45.582;5.298;2023-09-18T12:16:18;20.90;89.50
33827;DHT22;20128;45.582;5.298;2023-09-18T12:18:48;20.80;90.00
33827;DHT22;20128;45.582;5.298;2023-09-18T12:21:14;20.80;90.40
33827;DHT22;20128;45.582;5.298;2023-09-18T12:23:41;20.80;90.30
33827;DHT22;20128;45.582;5.298;2023-09-18T12:26:11;20.90;90.10
33827;DHT22;20128;45.582;5.298;2023-09-18T12:28:42;20.80;90.20
33827;DHT22;20128;45.582;5.298;2023-09-18T12:31:12;20.70;90.50
33827;DHT22;20128;45.582;5.298;2023-09-18T12:33:39;20.80;90.50
33827;DHT22;20128;45.582;5.298;2023-09-18T12:36:06;20.70;90.40
33827;DHT22;20128;45.582;5.298;2023-09-18T12:38:33;20.70;90.80
33827;DHT22;20128;45.582;5.298;2023-09-18T12:41:02;20.80;90.80
33827;DHT22;20128;45.582;5.298;2023-09-18T12:43:41;20.80;90.60
33827;DHT22;20128;45.582;5.298;2023-09-18T12:46:08;20.80;90.50
33827;DHT22;20128;45.582;5.298;2023-09-18T12:48:40;20.90;90.70
33827;DHT22;20128;45.582;5.298;2023-09-18T12:51:11;21.10;90.60
33827;DHT22;20128;45.582;5.298;2023-09-18T12:53:36;21.20;90.50
33827;DHT22;20128;45.582;5.298;2023-09-18T12:56:12;21.20;90.20
33827;DHT22;20128;45.582;5.298;2023-09-18T12:58:38;21.10;90.30
33827;DHT22;20128;45.582;5.298;2023-09-18T13:01:06;20.80;90.60
33827;DHT22;20128;45.582;5.298;2023-09-18T13:03:46;20.80;91.00
33827;DHT22;20128;45.582;5.298;2023-09-18T13:06:16;20.70;91.40
33827;DHT22;20128;45.582;5.298;2023-09-18T13:08:45;20.90;91.50
33827;DHT22;20128;45.582;5.298;2023-09-18T13:11:11;21.00;91.30
33827;DHT22;20128;45.582;5.298;2023-09-18T13:13:40;21.00;91.10
33827;DHT22;20128;45.582;5.298;2023-09-18T13:16:07;21.00;91.00
33827;DHT22;20128;45.582;5.298;2023-09-18T13:18:34;20.90;91.00
33827;DHT22;20128;45.582;5.298;2023-09-18T13:21:00;20.90;91.30
33827;DHT22;20128;45.582;5.298;2023-09-18T13:23:32;20.90;91.40
33827;DHT22;20128;45.582;5.298;2023-09-18T13:26:05;21.00;91.50
33827;DHT22;20128;45.582;5.298;2023-09-18T13:28:33;21.10;91.60
33827;DHT22;20128;45.582;5.298;2023-09-18T13:31:02;21.20;91.20
33827;DHT22;20128;45.582;5.298;2023-09-18T13:33:30;21.10;91.10
33827;DHT22;20128;45.582;5.298;2023-09-18T13:35:58;21.00;91.40
33827;DHT22;20128;45.582;5.298;2023-09-18T13:38:24;21.00;91.60
33827;DHT22;20128;45.582;5.298;2023-09-18T13:40:51;21.10;91.60
33827;DHT22;20128;45.582;5.298;2023-09-18T13:43:19;21.20;91.70
33827;DHT22;20128;45.582;5.298;2023-09-18T13:45:47;21.30;91.50
33827;DHT22;20128;45.582;5.298;2023-09-18T13:48:13;21.50;92.10
33827;DHT22;20128;45.582;5.298;2023-09-18T13:50:40;21.70;92.10
33827;DHT22;20128;45.582;5.298;2023-09-18T13:53:06;21.90;92.20
33827;DHT22;20128;45.582;5.298;2023-09-18T13:55:33;22.00;90.30
33827;DHT22;20128;45.582;5.298;2023-09-18T13:57:59;22.00;90.00
33827;DHT22;20128;45.582;5.298;2023-09-18T14:00:25;22.10;89.30
33827;DHT22;20128;45.582;5.298;2023-09-18T14:02:52;22.20;89.00
33827;DHT22;20128;45.582;5.298;2023-09-18T14:05:17;22.30;88.70
33827;DHT22;20128;45.582;5.298;2023-09-18T14:07:44;22.50;87.90
33827;DHT22;20128;45.582;5.298;2023-09-18T14:10:10;22.50;87.20
33827;DHT22;20128;45.582;5.298;2023-09-18T14:12:39;22.60;86.30
33827;DHT22;20128;45.582;5.298;2023-09-18T14:15:08;22.60;86.30
33827;DHT22;20128;45.582;5.298;2023-09-18T14:17:35;22.80;85.80
33827;DHT22;20128;45.582;5.298;2023-09-18T14:20:01;22.90;83.80
33827;DHT22;20128;45.582;5.298;2023-09-18T14:22:32;23.00;83.50
33827;DHT22;20128;45.582;5.298;2023-09-18T14:24:58;23.10;83.80
33827;DHT22;20128;45.582;5.298;2023-09-18T14:27:23;23.10;82.90
33827;DHT22;20128;45.582;5.298;2023-09-18T14:29:49;23.20;81.80
33827;DHT22;20128;45.582;5.298;2023-09-18T14:32:14;23.30;81.30
33827;DHT22;20128;45.582;5.298;2023-09-18T14:34:41;23.40;81.90
33827;DHT22;20128;45.582;5.298;2023-09-18T14:37:07;23.50;81.30
33827;DHT22;20128;45.582;5.298;2023-09-18T14:39:33;23.70;81.10
33827;DHT22;20128;45.582;5.298;2023-09-18T14:41:59;23.80;80.10
33827;DHT22;20128;45.582;5.298;2023-09-18T14:44:27;23.80;80.00
33827;DHT22;20128;45.582;5.298;2023-09-18T14:46:54;23.90;79.60
33827;DHT22;20128;45.582;5.298;2023-09-18T14:49:20;23.80;78.90
33827;DHT22;20128;45.582;5.298;2023-09-18T14:51:46;23.80;79.50
33827;DHT22;20128;45.582;5.298;2023-09-18T14:54:12;23.80;80.20
33827;DHT22;20128;45.582;5.298;2023-09-18T14:56:39;23.60;80.70
33827;DHT22;20128;45.582;5.298;2023-09-18T14:59:06;23.60;81.30
33827;DHT22;20128;45.582;5.298;2023-09-18T15:01:33;23.60;82.10
33827;DHT22;20128;45.582;5.298;2023-09-18T15:03:58;23.60;82.00
33827;DHT22;20128;45.582;5.298;2023-09-18T15:06:24;23.60;82.30
33827;DHT22;20128;45.582;5.298;2023-09-18T15:08:50;23.50;82.60
33827;DHT22;20128;45.582;5.298;2023-09-18T15:11:15;23.50;83.10
33827;DHT22;20128;45.582;5.298;2023-09-18T15:13:44;23.40;83.60
33827;DHT22;20128;45.582;5.298;2023-09-18T15:16:10;23.40;83.80
33827;DHT22;20128;45.582;5.298;2023-09-18T15:18:36;23.40;84.30
33827;DHT22;20128;45.582;5.298;2023-09-18T15:21:02;23.40;84.60
33827;DHT22;20128;45.582;5.298;2023-09-18T15:23:28;23.40;84.60
33827;DHT22;20128;45.582;5.298;2023-09-18T15:25:55;23.40;83.80
33827;DHT22;20128;45.582;5.298;2023-09-18T15:28:25;23.30;84.20
33827;DHT22;20128;45.582;5.298;2023-09-18T15:30:53;23.40;84.20
33827;DHT22;20128;45.582;5.298;2023-09-18T15:33:19;23.40;83.70
33827;DHT22;20128;45.582;5.298;2023-09-18T15:35:48;23.40;83.70
33827;DHT22;20128;45.582;5.298;2023-09-18T15:38:14;23.40;82.80
33827;DHT22;20128;45.582;5.298;2023-09-18T15:40:39;23.40;82.30
33827;DHT22;20128;45.582;5.298;2023-09-18T15:43:05;23.30;82.40
33827;DHT22;20128;45.582;5.298;2023-09-18T15:45:31;23.30;82.70
33827;DHT22;20128;45.582;5.298;2023-09-18T15:47:57;23.30;83.00
33827;DHT22;20128;45.582;5.298;2023-09-18T15:50:23;23.40;82.70
33827;DHT22;20128;45.582;5.298;2023-09-18T15:52:49;23.40;82.30